sensor_id;sensor_type;location;lat;lon;timestamp;temperature;humidity
69281;SHT31;56392;51.082;17.080;2023-12-07T00:02:04;-0.32;93.58
69281;SHT31;56392;51.082;17.080;2023-12-07T00:07:29;-0.30;93.66
69281;SHT31;56392;51.082;17.080;2023-12-07T00:12:52;-0.32;93.62
69281;SHT31;56392;51.082;17.080;2023-12-07T00:18:15;-0.40;93.37
69281;SHT31;56392;51.082;17.080;2023-12-07T00:23:39;-0.41;93.23
69281;SHT31;56392;51.082;17.080;2023-12-07T00:29:02;-0.40;93.35
69281;SHT31;56392;51.082;17.080;2023-12-07T00:34:25;-0.37;93.37
69281;SHT31;56392;51.082;17.080;2023-12-07T00:39:50;-0.42;93.21
69281;SHT31;56392;51.082;17.080;2023-12-07T00:45:13;-0.41;93.21
69281;SHT31;56392;51.082;17.080;2023-12-07T00:50:37;-0.41;93.22
69281;SHT31;56392;51.082;17.080;2023-12-07T00:56:02;-0.44;93.22
69281;SHT31;56392;51.082;17.080;2023-12-07T01:01:25;-0.44;93.27
69281;SHT31;56392;51.082;17.080;2023-12-07T01:06:50;-0.41;93.39
69281;SHT31;56392;51.082;17.080;2023-12-07T01:12:15;-0.47;93.12
69281;SHT31;56392;51.082;17.080;2023-12-07T01:17:38;-0.48;93.04
69281;SHT31;56392;51.082;17.080;2023-12-07T01:23:01;-0.55;92.84
69281;SHT31;56392;51.082;17.080;2023-12-07T01:28:27;-0.50;92.96
69281;SHT31;56392;51.082;17.080;2023-12-07T01:33:50;-0.48;93.08
69281;SHT31;56392;51.082;17.080;2023-12-07T01:39:13;-0.47;93.12
69281;SHT31;56392;51.082;17.080;2023-12-07T01:44:40;-0.50;92.94
69281;SHT31;56392;51.082;17.080;2023-12-07T01:50:04;-0.52;92.94
69281;SHT31;56392;51.082;17.080;2023-12-07T01:55:28;-0.50;93.15
69281;SHT31;56392;51.082;17.080;2023-12-07T02:00:55;-0.48;93.03
69281;SHT31;56392;51.082;17.080;2023-12-07T02:06:18;-0.50;93.18
69281;SHT31;56392;51.082;17.080;2023-12-07T02:11:42;-0.48;93.23
69281;SHT31;56392;51.082;17.080;2023-12-07T02:17:14;-0.48;93.27
69281;SHT31;56392;51.082;17.080;2023-12-07T02:22:41;-0.47;93.35
69281;SHT31;56392;51.082;17.080;2023-12-07T02:28:06;-0.44;93.38
69281;SHT31;56392;51.082;17.080;2023-12-07T02:33:29;-0.45;93.40
69281;SHT31;56392;51.082;17.080;2023-12-07T02:38:54;-0.45;93.39
69281;SHT31;56392;51.082;17.080;2023-12-07T02:44:20;-0.45;93.35
69281;SHT31;56392;51.082;17.080;2023-12-07T02:49:43;-0.47;93.37
69281;SHT31;56392;51.082;17.080;2023-12-07T02:55:07;-0.44;93.36
69281;SHT31;56392;51.082;17.080;2023-12-07T03:00:32;-0.42;93.42
69281;SHT31;56392;51.082;17.080;2023-12-07T03:05:55;-0.44;93.40
69281;SHT31;56392;51.082;17.080;2023-12-07T03:11:18;-0.41;93.46
69281;SHT31;56392;51.082;17.080;2023-12-07T03:16:42;-0.38;93.42
69281;SHT31;56392;51.082;17.080;2023-12-07T03:22:05;-0.41;93.32
69281;SHT31;56392;51.082;17.080;2023-12-07T03:27:29;-0.40;93.31
69281;SHT31;56392;51.082;17.080;2023-12-07T03:32:53;-0.38;93.30
69281;SHT31;56392;51.082;17.080;2023-12-07T03:38:16;-0.38;93.29
69281;SHT31;56392;51.082;17.080;2023-12-07T03:43:39;-0.38;93.26
69281;SHT31;56392;51.082;17.080;2023-12-07T03:49:03;-0.38;93.22
69281;SHT31;56392;51.082;17.080;2023-12-07T03:54:27;-0.38;93.24
69281;SHT31;56392;51.082;17.080;2023-12-07T03:59:50;-0.38;93.21
69281;SHT31;56392;51.082;17.080;2023-12-07T04:05:15;-0.35;93.21
69281;SHT31;56392;51.082;17.080;2023-12-07T04:10:38;-0.38;93.12
69281;SHT31;56392;51.082;17.080;2023-12-07T04:16:02;-0.34;93.25
69281;SHT31;56392;51.082;17.080;2023-12-07T04:21:27;-0.35;93.24
69281;SHT31;56392;51.082;17.080;2023-12-07T04:26:51;-0.35;93.23
69281;SHT31;56392;51.082;17.080;2023-12-07T04:32:14;-0.37;93.27
69281;SHT31;56392;51.082;17.080;2023-12-07T04:37:39;-0.38;93.19
69281;SHT31;56392;51.082;17.080;2023-12-07T04:43:02;-0.35;93.25
69281;SHT31;56392;51.082;17.080;2023-12-07T04:48:25;-0.37;93.26
69281;SHT31;56392;51.082;17.080;2023-12-07T04:53:49;-0.42;93.11
69281;SHT31;56392;51.082;17.080;2023-12-07T04:59:13;-0.40;93.15
69281;SHT31;56392;51.082;17.080;2023-12-07T05:04:36;-0.37;93.18
69281;SHT31;56392;51.082;17.080;2023-12-07T05:10:01;-0.41;93.20
69281;SHT31;56392;51.082;17.080;2023-12-07T05:15:25;-0.37;93.20
69281;SHT31;56392;51.082;17.080;2023-12-07T05:20:51;-0.41;93.17
69281;SHT31;56392;51.082;17.080;2023-12-07T05:26:16;-0.38;93.20
69281;SHT31;56392;51.082;17.080;2023-12-07T05:31:40;-0.37;93.24
69281;SHT31;56392;51.082;17.080;2023-12-07T05:37:04;-0.35;93.29
69281;SHT31;56392;51.082;17.080;2023-12-07T05:42:29;-0.38;93.11
69281;SHT31;56392;51.082;17.080;2023-12-07T05:47:54;-0.35;93.15
69281;SHT31;56392;51.082;17.080;2023-12-07T05:53:17;-0.32;93.10
69281;SHT31;56392;51.082;17.080;2023-12-07T05:58:42;-0.34;93.09
69281;SHT31;56392;51.082;17.080;2023-12-07T06:04:08;-0.32;93.04
69281;SHT31;56392;51.082;17.080;2023-12-07T06:09:34;-0.34;92.99
69281;SHT31;56392;51.082;17.080;2023-12-07T06:15:03;-0.30;92.98
69281;SHT31;56392;51.082;17.080;2023-12-07T06:20:28;-0.27;93.02
69281;SHT31;56392;51.082;17.080;2023-12-07T06:25:51;-0.27;92.95
69281;SHT31;56392;51.082;17.080;2023-12-07T06:31:16;-0.31;92.91
69281;SHT31;56392;51.082;17.080;2023-12-07T06:36:42;-0.25;92.88
69281;SHT31;56392;51.082;17.080;2023-12-07T06:42:06;-0.21;93.02
69281;SHT31;56392;51.082;17.080;2023-12-07T06:47:30;-0.22;93.10
69281;SHT31;56392;51.082;17.080;2023-12-07T06:52:53;-0.21;93.15
69281;SHT31;56392;51.082;17.080;2023-12-07T06:58:17;-0.21;93.22
69281;SHT31;56392;51.082;17.080;2023-12-07T07:03:41;-0.20;93.31
69281;SHT31;56392;51.082;17.080;2023-12-07T07:09:04;-0.17;93.35
69281;SHT31;56392;51.082;17.080;2023-12-07T07:14:27;-0.14;93.44
69281;SHT31;56392;51.082;17.080;2023-12-07T07:19:52;-0.14;93.52
69281;SHT31;56392;51.082;17.080;2023-12-07T07:25:15;-0.09;93.67
69281;SHT31;56392;51.082;17.080;2023-12-07T07:30:40;-0.07;93.73
69281;SHT31;56392;51.082;17.080;2023-12-07T07:36:06;-0.01;93.75
69281;SHT31;56392;51.082;17.080;2023-12-07T07:41:29;0.04;93.83
69281;SHT31;56392;51.082;17.080;2023-12-07T07:46:52;0.10;93.95
69281;SHT31;56392;51.082;17.080;2023-12-07T07:52:17;0.15;93.98
69281;SHT31;56392;51.082;17.080;2023-12-07T07:57:40;0.17;93.97
69281;SHT31;56392;51.082;17.080;2023-12-07T08:03:04;0.24;94.09
69281;SHT31;56392;51.082;17.080;2023-12-07T08:08:30;0.28;94.12
69281;SHT31;56392;51.082;17.080;2023-12-07T08:13:54;0.36;94.07
69281;SHT31;56392;51.082;17.080;2023-12-07T08:19:17;0.34;94.11
69281;SHT31;56392;51.082;17.080;2023-12-07T08:24:42;0.37;94.18
69281;SHT31;56392;51.082;17.080;2023-12-07T08:30:06;0.41;94.11
69281;SHT31;56392;51.082;17.080;2023-12-07T08:35:31;0.51;94.23
69281;SHT31;56392;51.082;17.080;2023-12-07T08:40:57;0.54;94.22
69281;SHT31;56392;51.082;17.080;2023-12-07T08:46:20;0.58;94.19
69281;SHT31;56392;51.082;17.080;2023-12-07T08:51:44;0.69;94.19
69281;SHT31;56392;51.082;17.080;2023-12-07T08:57:08;0.73;94.08
69281;SHT31;56392;51.082;17.080;2023-12-07T09:02:31;0.82;94.00
69281;SHT31;56392;51.082;17.080;2023-12-07T09:07:54;0.92;93.91
69281;SHT31;56392;51.082;17.080;2023-12-07T09:13:19;0.99;93.74
69281;SHT31;56392;51.082;17.080;2023-12-07T09:18:42;1.04;93.69
69281;SHT31;56392;51.082;17.080;2023-12-07T09:24:07;1.06;93.72
69281;SHT31;56392;51.082;17.080;2023-12-07T09:29:31;1.03;93.79
69281;SHT31;56392;51.082;17.080;2023-12-07T09:34:54;1.15;93.77
69281;SHT31;56392;51.082;17.080;2023-12-07T09:40:20;1.17;93.81
69281;SHT31;56392;51.082;17.080;2023-12-07T09:45:45;1.23;93.94
69281;SHT31;56392;51.082;17.080;2023-12-07T09:51:08;1.27;94.02
69281;SHT31;56392;51.082;17.080;2023-12-07T09:56:32;1.31;94.29
69281;SHT31;56392;51.082;17.080;2023-12-07T10:01:57;1.37;94.45
69281;SHT31;56392;51.082;17.080;2023-12-07T10:07:32;1.30;94.40
69281;SHT31;56392;51.082;17.080;2023-12-07T10:12:56;1.39;94.35
69281;SHT31;56392;51.082;17.080;2023-12-07T10:18:24;1.51;94.41
69281;SHT31;56392;51.082;17.080;2023-12-07T10:23:47;1.53;94.04
69281;SHT31;56392;51.082;17.080;2023-12-07T10:29:10;1.53;93.94
69281;SHT31;56392;51.082;17.080;2023-12-07T10:34:34;1.55;93.90
69281;SHT31;56392;51.082;17.080;2023-12-07T10:39:59;1.57;93.86
69281;SHT31;56392;51.082;17.080;2023-12-07T10:45:24;1.57;93.70
69281;SHT31;56392;51.082;17.080;2023-12-07T10:50:51;1.61;93.71
69281;SHT31;56392;51.082;17.080;2023-12-07T10:56:22;1.64;93.84
69281;SHT31;56392;51.082;17.080;2023-12-07T11:01:48;1.65;93.79
69281;SHT31;56392;51.082;17.080;2023-12-07T11:07:16;1.72;93.64
69281;SHT31;56392;51.082;17.080;2023-12-07T11:12:45;1.70;93.60
69281;SHT31;56392;51.082;17.080;2023-12-07T11:18:11;1.74;93.51
69281;SHT31;56392;51.082;17.080;2023-12-07T11:23:37;1.75;93.44
69281;SHT31;56392;51.082;17.080;2023-12-07T11:29:00;1.72;93.47
69281;SHT31;56392;51.082;17.080;2023-12-07T11:34:34;1.71;93.50
69281;SHT31;56392;51.082;17.080;2023-12-07T11:39:58;1.84;93.71
69281;SHT31;56392;51.082;17.080;2023-12-07T11:45:36;1.92;93.46
69281;SHT31;56392;51.082;17.080;2023-12-07T11:51:00;1.91;93.30
69281;SHT31;56392;51.082;17.080;2023-12-07T11:56:25;1.92;93.14
69281;SHT31;56392;51.082;17.080;2023-12-07T12:01:48;1.88;93.13
69281;SHT31;56392;51.082;17.080;2023-12-07T12:07:11;1.86;93.25
69281;SHT31;56392;51.082;17.080;2023-12-07T12:12:35;1.85;93.01
69281;SHT31;56392;51.082;17.080;2023-12-07T12:17:59;1.88;93.18
69281;SHT31;56392;51.082;17.080;2023-12-07T12:23:22;1.84;93.24
69281;SHT31;56392;51.082;17.080;2023-12-07T12:28:47;1.81;93.38
69281;SHT31;56392;51.082;17.080;2023-12-07T12:34:11;1.82;93.28
69281;SHT31;56392;51.082;17.080;2023-12-07T12:39:37;1.84;93.32
69281;SHT31;56392;51.082;17.080;2023-12-07T12:45:02;1.85;93.28
69281;SHT31;56392;51.082;17.080;2023-12-07T12:50:36;1.91;93.40
69281;SHT31;56392;51.082;17.080;2023-12-07T12:55:59;1.94;93.32
69281;SHT31;56392;51.082;17.080;2023-12-07T13:01:24;1.95;93.27
69281;SHT31;56392;51.082;17.080;2023-12-07T13:06:47;1.98;93.24
69281;SHT31;56392;51.082;17.080;2023-12-07T13:12:11;1.95;93.07
69281;SHT31;56392;51.082;17.080;2023-12-07T13:17:36;1.95;92.96
69281;SHT31;56392;51.082;17.080;2023-12-07T13:23:00;1.99;93.25
69281;SHT31;56392;51.082;17.080;2023-12-07T13:28:23;1.97;93.13
69281;SHT31;56392;51.082;17.080;2023-12-07T13:33:49;1.94;93.07
69281;SHT31;56392;51.082;17.080;2023-12-07T13:39:12;1.91;93.11
69281;SHT31;56392;51.082;17.080;2023-12-07T13:44:36;1.91;93.23
69281;SHT31;56392;51.082;17.080;2023-12-07T13:50:00;1.86;93.24
69281;SHT31;56392;51.082;17.080;2023-12-07T13:55:25;1.78;93.16
69281;SHT31;56392;51.082;17.080;2023-12-07T14:00:48;1.74;93.26
69281;SHT31;56392;51.082;17.080;2023-12-07T14:06:21;1.67;93.30
69281;SHT31;56392;51.082;17.080;2023-12-07T14:11:44;1.61;93.43
69281;SHT31;56392;51.082;17.080;2023-12-07T14:17:07;1.54;93.56
69281;SHT31;56392;51.082;17.080;2023-12-07T14:22:32;1.48;93.65
69281;SHT31;56392;51.082;17.080;2023-12-07T14:27:55;1.40;93.69
69281;SHT31;56392;51.082;17.080;2023-12-07T14:33:19;1.34;93.78
69281;SHT31;56392;51.082;17.080;2023-12-07T14:38:43;1.30;93.96
69281;SHT31;56392;51.082;17.080;2023-12-07T14:44:06;1.26;93.98
69281;SHT31;56392;51.082;17.080;2023-12-07T14:49:30;1.26;94.17
69281;SHT31;56392;51.082;17.080;2023-12-07T14:54:57;1.26;94.23
69281;SHT31;56392;51.082;17.080;2023-12-07T15:00:20;1.20;94.25
69281;SHT31;56392;51.082;17.080;2023-12-07T15:05:47;1.19;94.38
69281;SHT31;56392;51.082;17.080;2023-12-07T15:11:13;1.15;94.39
69281;SHT31;56392;51.082;17.080;2023-12-07T15:16:36;1.17;94.50
69281;SHT31;56392;51.082;17.080;2023-12-07T15:22:00;1.17;94.57
69281;SHT31;56392;51.082;17.080;2023-12-07T15:27:24;1.12;94.57
69281;SHT31;56392;51.082;17.080;2023-12-07T15:32:48;1.15;94.62
69281;SHT31;56392;51.082;17.080;2023-12-07T15:38:11;1.19;94.69
69281;SHT31;56392;51.082;17.080;2023-12-07T15:43:37;1.17;94.68
69281;SHT31;56392;51.082;17.080;2023-12-07T15:49:00;1.17;94.74
69281;SHT31;56392;51.082;17.080;2023-12-07T15:54:24;1.16;94.72
69281;SHT31;56392;51.082;17.080;2023-12-07T15:59:49;1.16;94.74
69281;SHT31;56392;51.082;17.080;2023-12-07T16:05:12;1.07;94.66
69281;SHT31;56392;51.082;17.080;2023-12-07T16:10:35;1.10;94.71
69281;SHT31;56392;51.082;17.080;2023-12-07T16:16:00;1.10;94.76
69281;SHT31;56392;51.082;17.080;2023-12-07T16:21:24;1.12;94.76
69281;SHT31;56392;51.082;17.080;2023-12-07T16:26:48;1.10;94.72
69281;SHT31;56392;51.082;17.080;2023-12-07T16:32:13;1.09;94.84
69281;SHT31;56392;51.082;17.080;2023-12-07T16:37:42;1.10;94.83
69281;SHT31;56392;51.082;17.080;2023-12-07T16:43:05;1.09;94.91
69281;SHT31;56392;51.082;17.080;2023-12-07T16:48:30;1.06;94.91
69281;SHT31;56392;51.082;17.080;2023-12-07T16:53:53;1.06;94.94
69281;SHT31;56392;51.082;17.080;2023-12-07T16:59:17;1.04;94.96
69281;SHT31;56392;51.082;17.080;2023-12-07T17:04:41;1.02;94.97
69281;SHT31;56392;51.082;17.080;2023-12-07T17:10:06;1.06;95.02
69281;SHT31;56392;51.082;17.080;2023-12-07T17:15:30;1.07;95.07
69281;SHT31;56392;51.082;17.080;2023-12-07T17:20:57;1.07;95.13
69281;SHT31;56392;51.082;17.080;2023-12-07T17:26:20;1.10;95.16
69281;SHT31;56392;51.082;17.080;2023-12-07T17:31:44;1.04;94.99
69281;SHT31;56392;51.082;17.080;2023-12-07T17:37:10;1.03;94.95
69281;SHT31;56392;51.082;17.080;2023-12-07T17:42:33;1.02;94.94
69281;SHT31;56392;51.082;17.080;2023-12-07T17:47:56;0.97;94.72
69281;SHT31;56392;51.082;17.080;2023-12-07T17:53:22;1.02;94.84
69281;SHT31;56392;51.082;17.080;2023-12-07T17:58:46;1.06;95.00
69281;SHT31;56392;51.082;17.080;2023-12-07T18:04:09;1.09;94.91
69281;SHT31;56392;51.082;17.080;2023-12-07T18:09:34;1.10;94.90
69281;SHT31;56392;51.082;17.080;2023-12-07T18:14:57;1.07;94.95
69281;SHT31;56392;51.082;17.080;2023-12-07T18:20:20;0.99;94.71
69281;SHT31;56392;51.082;17.080;2023-12-07T18:25:45;1.00;94.84
69281;SHT31;56392;51.082;17.080;2023-12-07T18:31:08;1.00;94.85
69281;SHT31;56392;51.082;17.080;2023-12-07T18:36:33;1.04;94.87
69281;SHT31;56392;51.082;17.080;2023-12-07T18:41:57;1.04;94.89
69281;SHT31;56392;51.082;17.080;2023-12-07T18:47:21;1.07;94.95
69281;SHT31;56392;51.082;17.080;2023-12-07T18:52:44;1.07;94.96
69281;SHT31;56392;51.082;17.080;2023-12-07T18:58:09;1.10;95.01
69281;SHT31;56392;51.082;17.080;2023-12-07T19:03:33;1.10;95.01
69281;SHT31;56392;51.082;17.080;2023-12-07T19:08:57;1.09;94.98
69281;SHT31;56392;51.082;17.080;2023-12-07T19:14:21;1.13;95.00
69281;SHT31;56392;51.082;17.080;2023-12-07T19:19:45;1.13;95.08
69281;SHT31;56392;51.082;17.080;2023-12-07T19:25:08;1.12;95.12
69281;SHT31;56392;51.082;17.080;2023-12-07T19:30:32;1.09;94.99
69281;SHT31;56392;51.082;17.080;2023-12-07T19:35:56;1.03;94.96
69281;SHT31;56392;51.082;17.080;2023-12-07T19:41:19;1.00;94.97
69281;SHT31;56392;51.082;17.080;2023-12-07T19:46:44;0.96;94.98
69281;SHT31;56392;51.082;17.080;2023-12-07T19:52:09;0.92;94.98
69281;SHT31;56392;51.082;17.080;2023-12-07T19:57:37;0.91;95.00
69281;SHT31;56392;51.082;17.080;2023-12-07T20:03:08;0.92;95.09
69281;SHT31;56392;51.082;17.080;2023-12-07T20:08:49;0.93;95.14
69281;SHT31;56392;51.082;17.080;2023-12-07T20:14:23;0.95;95.14
69281;SHT31;56392;51.082;17.080;2023-12-07T20:19:52;0.89;95.10
69281;SHT31;56392;51.082;17.080;2023-12-07T20:25:26;0.82;95.10
69281;SHT31;56392;51.082;17.080;2023-12-07T20:30:53;0.79;95.15
69281;SHT31;56392;51.082;17.080;2023-12-07T20:36:18;0.83;95.24
69281;SHT31;56392;51.082;17.080;2023-12-07T20:41:53;0.79;95.21
69281;SHT31;56392;51.082;17.080;2023-12-07T20:47:19;0.71;95.18
69281;SHT31;56392;51.082;17.080;2023-12-07T20:52:44;0.65;95.19
69281;SHT31;56392;51.082;17.080;2023-12-07T20:58:07;0.61;95.19
69281;SHT31;56392;51.082;17.080;2023-12-07T21:03:31;0.58;95.22
69281;SHT31;56392;51.082;17.080;2023-12-07T21:08:56;0.61;95.28
69281;SHT31;56392;51.082;17.080;2023-12-07T21:14:19;0.55;95.29
69281;SHT31;56392;51.082;17.080;2023-12-07T21:19:42;0.52;95.26
69281;SHT31;56392;51.082;17.080;2023-12-07T21:25:08;0.42;95.33
69281;SHT31;56392;51.082;17.080;2023-12-07T21:30:31;0.44;95.43
69281;SHT31;56392;51.082;17.080;2023-12-07T21:35:57;0.47;95.42
69281;SHT31;56392;51.082;17.080;2023-12-07T21:41:22;0.47;95.43
69281;SHT31;56392;51.082;17.080;2023-12-07T21:46:45;0.54;95.53
69281;SHT31;56392;51.082;17.080;2023-12-07T21:52:08;0.54;95.51
69281;SHT31;56392;51.082;17.080;2023-12-07T21:57:33;0.59;95.59
69281;SHT31;56392;51.082;17.080;2023-12-07T22:03:03;0.59;95.53
69281;SHT31;56392;51.082;17.080;2023-12-07T22:08:42;0.61;95.56
69281;SHT31;56392;51.082;17.080;2023-12-07T22:14:11;0.64;95.56
69281;SHT31;56392;51.082;17.080;2023-12-07T22:19:34;0.65;95.60
69281;SHT31;56392;51.082;17.080;2023-12-07T22:24:57;0.59;95.53
69281;SHT31;56392;51.082;17.080;2023-12-07T22:30:22;0.64;95.57
69281;SHT31;56392;51.082;17.080;2023-12-07T22:35:45;0.54;95.49
69281;SHT31;56392;51.082;17.080;2023-12-07T22:41:12;0.52;95.51
69281;SHT31;56392;51.082;17.080;2023-12-07T22:46:42;0.52;95.56
69281;SHT31;56392;51.082;17.080;2023-12-07T22:52:05;0.50;95.56
69281;SHT31;56392;51.082;17.080;2023-12-07T22:57:28;0.50;95.59
69281;SHT31;56392;51.082;17.080;2023-12-07T23:02:53;0.42;95.53
69281;SHT31;56392;51.082;17.080;2023-12-07T23:08:16;0.44;95.57
69281;SHT31;56392;51.082;17.080;2023-12-07T23:13:39;0.51;95.64
69281;SHT31;56392;51.082;17.080;2023-12-07T23:19:04;0.51;95.60
69281;SHT31;56392;51.082;17.080;2023-12-07T23:24:27;0.42;95.60
69281;SHT31;56392;51.082;17.080;2023-12-07T23:29:50;0.47;95.59
69281;SHT31;56392;51.082;17.080;2023-12-07T23:35:14;0.47;95.59
69281;SHT31;56392;51.082;17.080;2023-12-07T23:40:38;0.40;95.59
69281;SHT31;56392;51.082;17.080;2023-12-07T23:46:01;0.47;95.59
69281;SHT31;56392;51.082;17.080;2023-12-07T23:51:25;0.52;95.66
69281;SHT31;56392;51.082;17.080;2023-12-07T23:56:48;0.50;95.53
